Time;durP1;ratioP1;P1;durP2;ratioP2;P2;SDS_P1;SDS_P2;PMS_P1;PMS_P2;Temp;Humidity;BMP_temperature;BMP_pressure;BME280_temperature;BME280_humidity;BME280_pressure;Samples;Min_cycle;Max_cycle;Signal;HPM_P1;HPM_P2
2021/11/05 00:00:39;;;;;;;27.10;17.55;;;;;;;13.02;78.28;99913.75;5014437;28;20431;-76
2021/11/05 00:03:06;;;;;;;27.02;16.48;;;;;;;12.89;78.49;99902.16;5014286;28;20058;-76
2021/11/05 00:05:31;;;;;;;25.90;16.65;;;;;;;13.31;78.36;99978.38;4996683;28;20045;-76
2021/11/05 00:07:58;;;;;;;24.80;17.83;;;;;;;12.94;78.13;99916.50;5013997;28;20495;-75
2021/11/05 00:10:24;;;;;;;35.33;17.23;;;;;;;12.94;78.11;99916.50;4996899;28;20088;-76
2021/11/05 00:12:50;;;;;;;22.17;15.73;;;;;;;13.10;77.89;99925.25;5014619;28;20033;-75
2021/11/05 00:15:17;;;;;;;34.72;18.85;;;;;;;12.69;77.93;99864.78;5014327;28;20030;-76
2021/11/05 00:17:43;;;;;;;25.52;16.80;;;;;;;12.69;77.81;99873.56;5014030;28;20053;-76
2021/11/05 00:20:09;;;;;;;24.20;16.40;;;;;;;12.97;78.29;99921.44;5014282;28;20030;-75
2021/11/05 00:22:35;;;;;;;40.10;17.48;;;;;;;13.36;78.07;99971.50;5014306;28;20025;-76
2021/11/05 00:25:03;;;;;;;50.05;18.10;;;;;;;13.21;77.82;99940.72;5014221;28;20545;-74
2021/11/05 00:27:28;;;;;;;23.52;16.33;;;;;;;13.09;77.98;99939.50;5014181;28;20483;-75
2021/11/05 00:29:53;;;;;;;23.27;15.68;;;;;;;13.35;77.99;99974.34;5014269;28;20061;-75
2021/11/05 00:32:19;;;;;;;22.50;14.82;;;;;;;13.32;78.01;99974.72;5014109;28;20036;-76
2021/11/05 00:34:44;;;;;;;79.25;20.52;;;;;;;13.05;77.53;99923.16;5014297;28;20026;-75
2021/11/05 00:37:09;;;;;;;28.65;15.93;;;;;;;13.29;77.86;99961.81;5013922;28;20507;-77
2021/11/05 00:39:35;;;;;;;24.15;15.65;;;;;;;13.09;77.79;99935.03;5014114;28;20025;-77
2021/11/05 00:42:01;;;;;;;21.35;15.98;;;;;;;13.28;78.10;99961.00;4996352;28;20128;-77
2021/11/05 00:44:27;;;;;;;33.45;18.15;;;;;;;12.77;77.64;99885.91;5014035;28;20057;-77
2021/11/05 00:46:52;;;;;;;31.30;18.27;;;;;;;13.30;77.70;99963.47;5013861;28;20030;-77
2021/11/05 00:49:17;;;;;;;22.27;15.65;;;;;;;13.24;77.75;99951.78;5013787;28;20030;-77
2021/11/05 00:51:43;;;;;;;24.70;15.23;;;;;;;13.13;77.57;99925.69;4996107;28;20026;-76
2021/11/05 00:54:08;;;;;;;26.63;15.82;;;;;;;12.80;77.42;99885.53;5013733;28;20025;-77
2021/11/05 00:56:35;;;;;;;22.65;15.00;;;;;;;13.15;77.61;99934.28;5013804;28;20022;-77
2021/11/05 00:59:01;;;;;;;20.88;15.02;;;;;;;13.08;77.35;99912.19;5013665;28;20507;-77
2021/11/05 01:01:26;;;;;;;18.95;13.93;;;;;;;13.34;77.63;99952.31;5013522;28;20065;-77
2021/11/05 01:03:51;;;;;;;22.70;15.45;;;;;;;13.35;77.57;99953.13;5013806;28;20394;-77
2021/11/05 01:06:18;;;;;;;22.20;15.55;;;;;;;13.27;77.56;99929.38;5013510;28;20438;-76
2021/11/05 01:08:44;;;;;;;19.98;14.48;;;;;;;13.38;77.53;99954.59;4995966;28;20037;-77
2021/11/05 01:11:10;;;;;;;24.27;15.23;;;;;;;13.33;77.49;99940.06;5013435;28;20018;-77
2021/11/05 01:13:36;;;;;;;20.65;15.05;;;;;;;12.98;77.37;99882.50;5013475;28;20029;-76
2021/11/05 01:16:02;;;;;;;21.73;13.48;;;;;;;13.29;77.54;99938.78;5013279;28;20030;-77
2021/11/05 01:18:27;;;;;;;20.08;13.73;;;;;;;13.27;77.56;99946.09;4995385;28;20026;-77
2021/11/05 01:20:53;;;;;;;20.90;15.23;;;;;;;12.87;77.63;99885.63;5013053;28;20566;-77
2021/11/05 01:23:21;;;;;;;19.63;13.82;;;;;;;13.21;77.26;99924.81;5013225;28;20112;-76
2021/11/05 01:25:47;;;;;;;22.45;15.10;;;;;;;13.23;77.37;99915.66;4995642;28;20041;-76
2021/11/05 01:28:12;;;;;;;24.25;14.85;;;;;;;13.19;76.95;99914.38;5013617;28;20025;-77
2021/11/05 01:30:38;;;;;;;26.08;15.93;;;;;;;12.94;77.67;99871.44;4995246;28;20029;-77
2021/11/05 01:33:07;;;;;;;18.25;14.27;;;;;;;13.23;77.32;99918.31;4995366;28;20034;-75
2021/11/05 01:35:37;;;;;;;24.90;16.45;;;;;;;13.25;77.29;99934.03;5012834;28;20465;-77
2021/11/05 01:38:04;;;;;;;20.05;13.82;;;;;;;12.92;77.31;99876.09;5012920;28;20110;-76
2021/11/05 01:40:30;;;;;;;22.10;13.95;;;;;;;12.91;77.32;99871.81;5013024;28;20092;-77
2021/11/05 01:43:00;;;;;;;18.10;12.95;;;;;;;13.24;77.63;99919.13;4994693;28;20419;-76
2021/11/05 01:45:27;;;;;;;18.35;13.20;;;;;;;13.25;77.57;99920.78;5012245;28;20450;-76
2021/11/05 01:47:52;;;;;;;21.40;15.10;;;;;;;13.13;77.41;99901.03;5012528;28;20030;-75
2021/11/05 01:50:18;;;;;;;20.63;14.52;;;;;;;13.12;77.30;99896.72;5012502;28;20026;-77
2021/11/05 01:52:43;;;;;;;18.48;13.85;;;;;;;13.03;77.39;99888.06;5012667;28;20033;-75
2021/11/05 01:55:10;;;;;;;23.27;15.00;;;;;;;12.95;77.20;99866.97;5012496;28;20105;-75
2021/11/05 01:57:36;;;;;;;24.10;15.20;;;;;;;13.32;77.36;99922.50;5012683;28;20051;-76
2021/11/05 02:00:04;;;;;;;32.33;18.35;;;;;;;13.33;77.27;99918.00;5012443;28;20546;-77
2021/11/05 02:02:30;;;;;;;30.48;17.20;;;;;;;13.24;77.59;99906.69;5012177;28;20036;-78
2021/11/05 02:04:55;;;;;;;41.85;18.60;;;;;;;13.23;77.40;99896.28;5012437;28;20026;-76
2021/11/05 02:07:26;;;;;;;30.08;16.88;;;;;;;13.28;77.86;99915.09;5012462;28;20418;-76
2021/11/05 02:09:51;;;;;;;48.10;19.50;;;;;;;12.90;77.86;99856.91;5012340;28;20025;-76
2021/11/05 02:12:17;;;;;;;45.65;18.27;;;;;;;13.17;78.24;99899.66;4994482;28;20494;-76
2021/11/05 02:14:46;;;;;;;41.13;17.02;;;;;;;13.14;78.41;99903.47;5012124;28;20087;-77
2021/11/05 02:17:12;;;;;;;31.38;16.25;;;;;;;12.70;78.43;99832.00;5011953;28;20049;-77
2021/11/05 02:19:38;;;;;;;28.60;17.58;;;;;;;12.65;78.51;99823.78;5012107;28;20030;-76
2021/11/05 02:22:05;;;;;;;27.05;15.73;;;;;;;13.21;78.37;99903.59;5012250;28;20068;-77
2021/11/05 02:24:30;;;;;;;37.90;18.02;;;;;;;13.04;78.14;99876.44;5012236;28;20029;-77
2021/11/05 02:26:58;;;;;;;35.65;15.70;;;;;;;13.28;78.42;99915.91;5011926;28;20029;-77
2021/11/05 02:29:25;;;;;;;29.63;16.73;;;;;;;13.29;78.66;99933.47;4994255;28;20018;-77
2021/11/05 02:31:51;;;;;;;31.38;17.42;;;;;;;13.32;78.68;99932.28;4994296;28;20030;-77
2021/11/05 02:34:17;;;;;;;26.60;16.05;;;;;;;13.28;78.41;99925.72;5012086;28;20022;-76
2021/11/05 02:36:42;;;;;;;27.15;16.42;;;;;;;13.35;78.74;99932.72;5011931;28;20423;-77
2021/11/05 02:39:09;;;;;;;26.30;15.52;;;;;;;13.25;78.43;99923.44;5011858;28;20087;-77
2021/11/05 02:41:40;;;;;;;24.77;14.90;;;;;;;13.38;78.61;99946.63;5011802;28;20026;-76
2021/11/05 02:44:06;;;;;;;34.28;16.63;;;;;;;13.38;78.50;99938.66;5011787;28;20112;-75
2021/11/05 02:46:32;;;;;;;33.08;17.88;;;;;;;12.91;78.38;99868.34;5011935;28;20109;-76
2021/11/05 02:48:58;;;;;;;22.45;15.50;;;;;;;13.39;78.75;99930.56;5011812;28;20049;-77
2021/11/05 02:51:25;;;;;;;26.95;17.00;;;;;;;13.38;78.69;99928.06;5011714;28;20030;-77
2021/11/05 02:53:51;;;;;;;35.03;18.40;;;;;;;13.11;78.82;99893.25;5011794;28;20022;-76
2021/11/05 02:56:16;;;;;;;32.13;18.25;;;;;;;13.01;78.62;99884.78;5011654;28;20030;-77
2021/11/05 02:58:42;;;;;;;34.45;18.33;;;;;;;13.39;78.79;99938.50;5011375;28;20418;-77
2021/11/05 03:01:07;;;;;;;38.65;19.05;;;;;;;13.41;78.72;99933.84;4993798;28;20037;-77
2021/11/05 03:03:33;;;;;;;38.70;17.67;;;;;;;13.12;78.55;99891.41;5011363;28;20029;-76
2021/11/05 03:05:58;;;;;;;22.63;15.65;;;;;;;12.84;79.00;99862.13;4993651;28;20038;-76
2021/11/05 03:08:24;;;;;;;31.25;17.85;;;;;;;13.02;78.85;99891.72;5011217;28;20022;-76
2021/11/05 03:10:49;;;;;;;29.30;16.60;;;;;;;12.93;78.92;99898.13;5011480;28;20022;-76
2021/11/05 03:13:15;;;;;;;22.40;14.48;;;;;;;13.32;78.66;99946.38;4993827;28;20026;-77
2021/11/05 03:15:40;;;;;;;36.83;19.15;;;;;;;13.32;78.92;99930.44;4993868;28;20049;-77
2021/11/05 03:18:07;;;;;;;28.58;16.33;;;;;;;12.84;78.86;99855.00;5011409;28;20034;-76
2021/11/05 03:20:32;;;;;;;31.52;16.52;;;;;;;13.10;78.92;99909.34;5011585;28;20026;-77
2021/11/05 03:22:59;;;;;;;32.17;15.55;;;;;;;13.38;78.66;99957.25;4993695;28;20033;-76
2021/11/05 03:25:25;;;;;;;23.30;14.48;;;;;;;12.61;78.98;99839.19;5011417;28;20021;-77
2021/11/05 03:27:50;;;;;;;31.52;15.68;;;;;;;12.98;78.98;99899.22;5011272;28;20033;-76
2021/11/05 03:30:19;;;;;;;27.50;15.05;;;;;;;13.28;78.93;99937.13;5011314;28;20053;-77
2021/11/05 03:32:45;;;;;;;23.08;12.98;;;;;;;13.10;79.16;99912.81;5011303;28;20028;-77
2021/11/05 03:35:12;;;;;;;25.77;15.57;;;;;;;12.54;78.85;99825.03;5011285;28;20056;-77
2021/11/05 03:37:38;;;;;;;23.35;14.25;;;;;;;13.08;79.02;99912.19;5011442;28;20465;-76
2021/11/05 03:40:06;;;;;;;22.77;15.00;;;;;;;13.22;78.86;99921.97;4993757;28;20064;-76
2021/11/05 03:42:32;;;;;;;25.65;14.82;;;;;;;13.30;78.70;99943.06;5010922;28;20026;-76
2021/11/05 03:44:57;;;;;;;30.80;15.98;;;;;;;13.30;78.98;99955.50;5011230;28;20549;-77
2021/11/05 03:47:23;;;;;;;28.15;14.93;;;;;;;12.92;79.11;99886.69;5011201;28;20026;-76
2021/11/05 03:49:49;;;;;;;31.27;14.25;;;;;;;12.95;78.79;99885.50;5011266;28;20502;-77
2021/11/05 03:52:14;;;;;;;34.05;14.85;;;;;;;13.14;78.96;99924.69;5010930;28;20057;-77
2021/11/05 03:54:40;;;;;;;24.40;15.25;;;;;;;13.21;78.93;99941.53;4993303;28;20022;-76
2021/11/05 03:57:06;;;;;;;23.63;14.98;;;;;;;13.23;79.40;99954.59;5011153;28;20021;-76
2021/11/05 03:59:31;;;;;;;29.35;14.77;;;;;;;13.18;79.26;99949.84;5010891;28;20048;-77
2021/11/05 04:01:58;;;;;;;20.70;14.57;;;;;;;13.12;79.11;99926.72;5010799;28;20030;-76
2021/11/05 04:04:24;;;;;;;23.88;16.15;;;;;;;12.69;78.94;99847.06;5010924;28;20478;-77
2021/11/05 04:06:49;;;;;;;28.40;16.45;;;;;;;12.80;79.21;99858.22;5011476;28;20026;-77
2021/11/05 04:09:14;;;;;;;27.35;16.95;;;;;;;12.76;79.06;99841.03;5014270;28;20483;-77
2021/11/05 04:11:40;;;;;;;29.58;16.83;;;;;;;13.26;79.16;99919.75;5014378;28;20141;-77
2021/11/05 04:14:05;;;;;;;22.45;14.88;;;;;;;12.62;79.13;99822.28;4996839;28;20109;-77
2021/11/05 04:16:31;;;;;;;18.83;13.82;;;;;;;12.78;78.76;99846.97;5014332;28;20407;-77
2021/11/05 04:18:56;;;;;;;22.05;15.27;;;;;;;13.30;79.19;99931.66;5014077;28;20040;-76
2021/11/05 04:21:22;;;;;;;21.50;14.95;;;;;;;12.99;79.24;99895.56;5014299;28;20392;-77
2021/11/05 04:23:47;;;;;;;23.23;14.88;;;;;;;13.07;79.03;99904.41;5014490;28;20057;-77
2021/11/05 04:26:15;;;;;;;22.63;16.20;;;;;;;13.04;78.97;99906.44;5014359;28;20026;-77
2021/11/05 04:28:40;;;;;;;21.70;14.40;;;;;;;13.16;79.08;99930.63;5014176;28;20483;-76
2021/11/05 04:31:06;;;;;;;24.75;15.38;;;;;;;13.00;78.83;99904.34;5014371;28;20034;-77
2021/11/05 04:33:32;;;;;;;21.63;14.20;;;;;;;13.19;79.41;99942.72;5014171;28;20553;-77
2021/11/05 04:35:58;;;;;;;23.08;13.68;;;;;;;13.30;79.26;99942.25;5014453;28;20037;-77
2021/11/05 04:38:25;;;;;;;17.88;11.30;;;;;;;13.30;78.94;99947.56;5014107;28;20049;-77
2021/11/05 04:40:50;;;;;;;24.50;14.75;;;;;;;12.96;78.77;99898.56;5013918;28;20026;-76
2021/11/05 04:43:16;;;;;;;17.75;11.77;;;;;;;12.49;78.57;99834.53;5014379;28;20024;-77
2021/11/05 04:45:41;;;;;;;16.13;11.98;;;;;;;13.01;78.79;99935.94;5013960;28;20044;-76
2021/11/05 04:48:07;;;;;;;17.35;12.13;;;;;;;13.18;79.02;99944.56;5013875;28;20056;-77
2021/11/05 04:50:33;;;;;;;23.02;13.88;;;;;;;12.98;78.59;99909.81;5013987;28;20022;-76
2021/11/05 04:52:58;;;;;;;19.58;12.23;;;;;;;13.11;79.03;99937.50;5013937;28;20026;-77
2021/11/05 04:55:24;;;;;;;14.98;11.25;;;;;;;13.20;78.88;99950.50;5013640;28;20026;-77
2021/11/05 04:57:50;;;;;;;18.65;12.27;;;;;;;13.10;78.84;99949.94;5013850;28;20033;-77
2021/11/05 05:00:19;;;;;;;17.88;13.27;;;;;;;13.12;78.47;99939.97;5013536;28;20042;-77
2021/11/05 05:02:44;;;;;;;16.80;12.65;;;;;;;12.70;78.62;99882.34;5013417;28;20029;-77
2021/11/05 05:05:10;;;;;;;13.70;11.88;;;;;;;13.17;78.62;99948.22;5013354;28;20041;-77
2021/11/05 05:07:35;;;;;;;20.88;13.88;;;;;;;12.90;78.53;99915.22;5013297;28;20537;-77
2021/11/05 05:10:01;;;;;;;19.77;14.23;;;;;;;12.71;78.60;99892.75;5013356;28;20022;-76
2021/11/05 05:12:27;;;;;;;18.35;12.65;;;;;;;13.19;78.57;99970.06;5013464;28;20497;-76
2021/11/05 05:14:52;;;;;;;19.83;13.85;;;;;;;13.19;78.62;99970.06;5013318;28;20026;-77
2021/11/05 05:17:18;;;;;;;18.02;12.82;;;;;;;13.21;78.48;99967.22;4995948;28;20049;-76
2021/11/05 05:19:43;;;;;;;21.20;16.05;;;;;;;12.97;78.78;99924.06;5012214;28;20526;-77
2021/11/05 05:22:09;;;;;;;24.00;15.15;;;;;;;13.20;78.61;99971.72;4995432;28;20111;-77
2021/11/05 05:24:37;;;;;;;21.70;14.02;;;;;;;12.81;78.43;99904.91;5013021;28;20087;-75
2021/11/05 05:27:03;;;;;;;20.83;13.07;;;;;;;13.18;78.45;99967.59;5013216;28;20048;-77
2021/11/05 05:29:29;;;;;;;24.30;16.65;;;;;;;13.09;78.71;99958.06;4995682;28;20025;-77
2021/11/05 05:31:54;;;;;;;21.05;14.73;;;;;;;13.13;78.76;99954.03;5013000;28;20469;-77
2021/11/05 05:34:20;;;;;;;25.63;15.07;;;;;;;12.73;78.65;99897.88;5012966;28;20022;-77
2021/11/05 05:36:45;;;;;;;27.88;15.30;;;;;;;13.21;78.95;99973.34;5012748;28;20459;-77
2021/11/05 05:39:12;;;;;;;23.20;15.77;;;;;;;12.91;78.66;99924.81;5012633;28;20033;-77
2021/11/05 05:41:37;;;;;;;30.13;17.33;;;;;;;13.22;78.90;99980.31;5012768;28;20041;-77
2021/11/05 05:44:03;;;;;;;27.88;17.05;;;;;;;12.92;78.95;99925.63;5012786;28;20418;-77
2021/11/05 05:46:29;;;;;;;33.47;18.45;;;;;;;13.08;79.32;99945.81;5012674;28;20400;-77
2021/11/05 05:48:54;;;;;;;30.30;19.80;;;;;;;13.07;79.14;99945.00;4995064;28;20052;-77
2021/11/05 05:51:20;;;;;;;32.78;20.83;;;;;;;12.83;79.23;99905.53;5012575;28;20022;-77
2021/11/05 05:53:45;;;;;;;33.38;21.55;;;;;;;12.68;78.93;99898.41;5012455;28;20025;-76
2021/11/05 05:56:10;;;;;;;36.00;22.52;;;;;;;13.34;79.09;99997.38;5012276;28;20411;-76
2021/11/05 05:58:36;;;;;;;33.70;21.40;;;;;;;13.38;79.03;99999.66;5012194;28;20105;-76
2021/11/05 06:01:02;;;;;;;36.20;21.48;;;;;;;13.39;78.97;99996.88;5012243;28;20506;-77
2021/11/05 06:03:28;;;;;;;29.23;18.25;;;;;;;13.36;78.80;99986.59;4994716;28;20455;-77
2021/11/05 06:05:54;;;;;;;27.00;17.95;;;;;;;12.86;78.97;99908.63;5012530;28;20371;-77
2021/11/05 06:08:19;;;;;;;32.55;18.50;;;;;;;13.46;79.01;100003.06;5012190;28;20100;-75
2021/11/05 06:10:45;;;;;;;24.63;17.17;;;;;;;13.42;79.39;99991.19;4994645;28;20105;-76
2021/11/05 06:13:11;;;;;;;27.42;17.65;;;;;;;13.01;78.91;99940.44;5012254;28;20048;-77
2021/11/05 06:15:36;;;;;;;24.25;16.42;;;;;;;13.01;78.87;99932.47;5012287;28;20085;-77
2021/11/05 06:18:02;;;;;;;14.90;11.18;;;;;;;13.36;78.99;99990.06;5011776;28;20029;-77
2021/11/05 06:20:27;;;;;;;13.35;10.35;;;;;;;13.07;79.02;99952.94;5011769;28;20039;-77
2021/11/05 06:22:53;;;;;;;17.30;12.25;;;;;;;13.27;78.97;99985.88;5011872;28;20060;-76
2021/11/05 06:25:18;;;;;;;16.60;12.45;;;;;;;13.47;78.96;100004.72;4994286;28;20026;-77
2021/11/05 06:27:44;;;;;;;20.67;14.30;;;;;;;13.28;79.08;99979.56;5011810;28;20029;-76
2021/11/05 06:30:11;;;;;;;15.60;12.23;;;;;;;13.05;78.93;99936.41;4993357;28;20029;-76
2021/11/05 06:32:38;;;;;;;16.73;11.27;;;;;;;13.48;79.00;100008.19;4994089;28;20072;-76
2021/11/05 06:35:05;;;;;;;17.40;12.77;;;;;;;13.31;79.26;99997.75;4992363;28;20025;-76
2021/11/05 06:37:31;;;;;;;19.67;13.75;;;;;;;13.20;79.23;99965.59;4993662;28;20087;-77
2021/11/05 06:39:56;;;;;;;15.57;12.38;;;;;;;13.41;79.05;100002.81;4992842;28;20030;-76
2021/11/05 06:42:22;;;;;;;20.92;14.13;;;;;;;13.43;79.06;100000.78;5011488;28;20482;-75
2021/11/05 06:44:49;;;;;;;21.67;15.15;;;;;;;13.47;78.87;100011.84;5011358;28;20037;-76
2021/11/05 06:47:15;;;;;;;20.65;16.15;;;;;;;13.61;78.94;100021.63;4993545;28;20562;-77
2021/11/05 06:49:42;;;;;;;17.92;13.82;;;;;;;13.02;78.79;99918.22;5011706;28;20097;-76
2021/11/05 06:52:08;;;;;;;24.33;16.40;;;;;;;13.67;78.76;100012.91;5011220;28;20109;-76
2021/11/05 06:54:35;;;;;;;18.05;13.48;;;;;;;13.60;78.58;100004.88;5011393;28;20392;-77
2021/11/05 06:57:01;;;;;;;23.27;16.88;;;;;;;13.68;78.61;100014.56;5011407;28;20033;-77
2021/11/05 06:59:26;;;;;;;19.52;14.63;;;;;;;13.61;78.63;100021.63;5009597;28;20076;-77
2021/11/05 07:01:52;;;;;;;21.40;15.93;;;;;;;13.18;78.59;99949.84;5006311;28;20058;-76
2021/11/05 07:04:17;;;;;;;18.75;14.77;;;;;;;13.68;78.58;100026.00;5008926;28;20041;-83
2021/11/05 07:06:46;;;;;;;20.98;15.13;;;;;;;13.28;78.78;99953.03;5010243;28;20462;-83
2021/11/05 07:09:13;;;;;;;19.80;14.80;;;;;;;13.53;78.74;100001.31;5011387;28;20065;-83
2021/11/05 07:11:39;;;;;;;22.73;16.83;;;;;;;13.72;78.55;100033.59;5010965;28;20415;-83
2021/11/05 07:14:04;;;;;;;20.70;15.88;;;;;;;13.73;78.64;100029.91;5011008;28;20068;-82
2021/11/05 07:16:32;;;;;;;26.90;21.23;;;;;;;13.55;78.45;100001.13;5010932;28;20054;-83
2021/11/05 07:18:57;;;;;;;21.77;16.77;;;;;;;13.29;78.31;99964.47;5025779;28;20029;-83
2021/11/05 07:21:23;;;;;;;25.35;19.35;;;;;;;13.66;78.43;100017.41;5021528;28;20421;-83
2021/11/05 07:23:49;;;;;;;28.45;18.30;;;;;;;13.45;78.34;99979.38;5013771;28;20075;-77
2021/11/05 07:26:15;;;;;;;24.20;16.60;;;;;;;13.38;78.44;99975.81;4993252;28;20145;-77
2021/11/05 07:28:41;;;;;;;19.77;16.23;;;;;;;13.77;78.27;100032.00;5011045;28;20475;-77
2021/11/05 07:31:06;;;;;;;25.98;18.33;;;;;;;13.60;78.38;99998.75;5010683;28;20022;-77
2021/11/05 07:33:32;;;;;;;24.20;18.38;;;;;;;13.84;78.31;100037.41;5022379;28;20025;-76
2021/11/05 07:35:57;;;;;;;22.90;18.33;;;;;;;13.27;78.28;99938.16;5026170;28;20041;-76
2021/11/05 07:38:23;;;;;;;26.33;20.52;;;;;;;13.43;78.07;99954.88;5004505;28;20041;-76
2021/11/05 07:40:48;;;;;;;27.35;20.02;;;;;;;13.39;78.14;99945.66;4986121;28;20038;-78
2021/11/05 07:43:13;;;;;;;26.23;21.98;;;;;;;13.92;78.27;100024.00;5018880;28;20076;-76
2021/11/05 07:45:39;;;;;;;31.35;22.55;;;;;;;13.70;77.98;99988.66;5003572;28;20116;-76
2021/11/05 07:48:04;;;;;;;26.23;18.42;;;;;;;13.61;77.97;99973.84;5005478;28;20446;-76
2021/11/05 07:50:33;;;;;;;27.20;20.85;;;;;;;13.61;77.70;99976.50;5007258;28;20037;-76
2021/11/05 07:53:01;;;;;;;25.80;19.83;;;;;;;13.68;77.47;99980.88;5005998;28;20510;-76
2021/11/05 07:55:28;;;;;;;28.30;20.23;;;;;;;13.26;77.57;99914.47;5006567;28;20040;-77
2021/11/05 07:57:54;;;;;;;28.27;21.95;;;;;;;13.89;77.53;100041.13;5008220;28;20034;-76
2021/11/05 08:00:19;;;;;;;29.42;22.95;;;;;;;13.54;77.41;99973.78;4998711;28;20034;-76
2021/11/05 08:02:45;;;;;;;32.72;23.90;;;;;;;13.44;77.09;99960.00;4982731;28;20240;-77
2021/11/05 08:05:11;;;;;;;31.50;24.23;;;;;;;13.96;77.31;100033.25;5009050;28;20438;-76
2021/11/05 08:07:38;;;;;;;32.85;24.35;;;;;;;14.00;76.85;100021.25;4996290;28;20375;-76
2021/11/05 08:10:04;;;;;;;37.33;27.75;;;;;;;13.98;76.68;100028.56;4989965;28;20072;-77
2021/11/05 08:12:30;;;;;;;38.03;27.95;;;;;;;13.81;76.60;99990.81;5011809;28;20030;-76
2021/11/05 08:14:55;;;;;;;36.78;27.75;;;;;;;13.60;76.73;99978.34;5007049;28;20033;-77
2021/11/05 08:17:20;;;;;;;45.40;31.30;;;;;;;13.94;76.84;100022.00;4997944;28;20080;-76
2021/11/05 08:19:46;;;;;;;44.40;31.67;;;;;;;13.60;76.98;99969.56;4991316;28;20105;-76
2021/11/05 08:22:11;;;;;;;42.25;32.53;;;;;;;13.42;76.65;99947.94;4999917;28;20057;-76
2021/11/05 08:24:37;;;;;;;37.65;29.50;;;;;;;14.11;76.61;100049.13;4986614;28;20419;-77
2021/11/05 08:27:03;;;;;;;33.95;25.70;;;;;;;14.10;76.52;100056.28;5008999;28;20045;-76
2021/11/05 08:29:28;;;;;;;34.97;27.58;;;;;;;13.87;76.52;100021.91;4999117;28;20034;-76
2021/11/05 08:31:53;;;;;;;34.35;27.00;;;;;;;13.54;76.33;99968.47;5006137;28;20032;-76
2021/11/05 08:34:19;;;;;;;36.65;28.73;;;;;;;13.78;76.33;100006.28;4995144;28;20040;-76
2021/11/05 08:36:44;;;;;;;38.70;29.92;;;;;;;14.07;76.38;100031.94;4996480;28;20096;-76
2021/11/05 08:39:11;;;;;;;41.47;29.70;;;;;;;13.77;76.33;99989.56;5008714;28;20061;-76
2021/11/05 08:41:36;;;;;;;42.42;30.17;;;;;;;14.13;76.62;100063.06;4980998;28;20033;-76
2021/11/05 08:44:02;;;;;;;36.90;25.98;;;;;;;13.79;76.45;99997.31;5005649;28;20034;-76
2021/11/05 08:46:30;;;;;;;29.65;22.75;;;;;;;14.27;76.50;100065.66;5026462;28;20505;-76
2021/11/05 08:48:59;;;;;;;31.05;20.58;;;;;;;14.28;76.38;100066.50;5006919;28;20037;-76
2021/11/05 08:51:25;;;;;;;29.58;21.02;;;;;;;14.32;76.43;100063.25;5012940;28;20029;-76
2021/11/05 08:53:51;;;;;;;30.20;20.10;;;;;;;14.34;76.37;100056.94;5004816;28;20068;-76
2021/11/05 08:56:17;;;;;;;30.27;19.85;;;;;;;13.99;76.39;99998.34;4999889;28;20053;-74
2021/11/05 08:58:43;;;;;;;20.40;16.60;;;;;;;13.94;76.03;100001.56;5019258;28;20041;-77
2021/11/05 09:01:09;;;;;;;22.50;17.58;;;;;;;14.45;76.12;100070.56;5032674;28;20022;-76
2021/11/05 09:03:35;;;;;;;15.85;13.77;;;;;;;14.28;75.56;100035.44;5013019;28;20096;-76
2021/11/05 09:06:02;;;;;;;24.20;16.85;;;;;;;14.12;75.60;100001.16;5013018;28;20382;-76
2021/11/05 09:08:30;;;;;;;23.42;17.48;;;;;;;13.98;75.32;99975.47;5012519;28;20025;-76
2021/11/05 09:10:56;;;;;;;26.73;19.50;;;;;;;14.50;75.42;100046.91;4981506;28;20041;-76
2021/11/05 09:13:22;;;;;;;33.33;21.20;;;;;;;14.41;75.25;100036.56;4993250;28;20515;-77
2021/11/05 09:15:47;;;;;;;28.13;20.65;;;;;;;14.46;75.47;100050.97;4997759;28;20065;-75
2021/11/05 09:18:13;;;;;;;21.77;16.15;;;;;;;14.35;75.38;100022.22;4993348;28;20042;-76
2021/11/05 09:20:38;;;;;;;26.70;19.25;;;;;;;14.19;75.09;100003.88;5005852;28;20048;-76
2021/11/05 09:23:05;;;;;;;22.17;17.00;;;;;;;14.49;75.12;100039.94;5002301;28;20030;-82
2021/11/05 09:25:30;;;;;;;22.25;16.75;;;;;;;14.50;75.26;100038.94;4993191;28;20049;-82
2021/11/05 09:27:56;;;;;;;20.20;17.45;;;;;;;14.51;75.11;100040.59;5009083;28;20053;-83
2021/11/05 09:30:23;;;;;;;19.50;17.05;;;;;;;14.55;74.80;100028.56;5012404;28;20030;-82
2021/11/05 09:32:50;;;;;;;25.38;18.00;;;;;;;14.15;74.57;99966.25;4995742;28;20026;-82
2021/11/05 09:35:16;;;;;;;21.35;16.90;;;;;;;14.15;74.86;99968.09;5008673;28;20121;-82
2021/11/05 09:37:44;;;;;;;21.73;16.50;;;;;;;14.53;74.52;100014.63;5011014;28;20584;-82
2021/11/05 09:40:13;;;;;;;20.40;16.45;;;;;;;14.37;74.29;99967.06;5010867;28;20033;-82
2021/11/05 09:42:45;;;;;;;18.77;14.85;;;;;;;14.38;74.04;99950.13;5002816;28;20026;-81
2021/11/05 09:45:12;;;;;;;18.13;13.77;;;;;;;14.84;73.98;100008.13;4991226;28;20530;-82
2021/11/05 09:47:39;;;;;;;22.38;14.57;;;;;;;14.75;73.82;100007.44;5010498;28;20033;-82
2021/11/05 09:50:05;;;;;;;16.67;13.45;;;;;;;14.87;73.65;100015.75;4992987;28;20033;-82
2021/11/05 09:52:31;;;;;;;19.15;14.85;;;;;;;14.50;73.70;99961.06;5009758;28;20018;-81
2021/11/05 09:54:59;;;;;;;28.48;20.80;;;;;;;15.05;73.55;100023.22;4991759;28;20522;-81
2021/11/05 09:57:24;;;;;;;26.35;20.95;;;;;;;14.73;73.91;99974.09;4993944;28;20022;-82
2021/11/05 09:59:50;;;;;;;27.17;21.13;;;;;;;14.98;73.89;99999.25;5004355;28;20034;-81
2021/11/05 10:02:16;;;;;;;30.17;21.10;;;;;;;15.04;73.88;100019.72;5004814;28;20047;-82
2021/11/05 10:04:42;;;;;;;22.75;20.08;;;;;;;14.93;73.93;99997.16;4995246;28;20037;-82
2021/11/05 10:07:09;;;;;;;30.75;22.60;;;;;;;14.96;73.82;100001.28;4974734;28;20461;-83
2021/11/05 10:09:41;;;;;;;27.70;20.60;;;;;;;15.07;73.92;100003.38;4992502;28;20026;-82
2021/11/05 10:12:08;;;;;;;21.13;16.95;;;;;;;15.11;73.78;100001.97;5003929;28;20498;-82
2021/11/05 10:14:34;;;;;;;19.15;15.52;;;;;;;14.93;73.71;99970.59;5009383;28;20063;-82
2021/11/05 10:17:02;;;;;;;18.63;13.73;;;;;;;15.16;73.51;99999.56;5008900;28;20052;-81
2021/11/05 10:19:53;;;;;;;20.80;14.45;;;;;;;15.23;73.56;99991.59;4993722;28;20033;-82
2021/11/05 10:22:59;;;;;;;19.27;12.95;;;;;;;14.80;73.50;99919.97;5010173;28;20104;-81
2021/11/05 10:25:31;;;;;;;18.27;13.57;;;;;;;15.23;73.01;99972.97;5009837;28;20033;-77
2021/11/05 10:28:24;;;;;;;17.95;13.45;;;;;;;15.13;73.50;99957.38;5010242;28;20029;-76
2021/11/05 10:31:00;;;;;;;35.30;25.42;;;;;;;14.76;73.45;99886.00;5003852;28;20120;-76
2021/11/05 10:33:51;;;;;;;22.27;16.10;;;;;;;15.06;73.22;99918.47;5013455;28;20037;-76
2021/11/05 10:36:22;;;;;;;23.48;17.65;;;;;;;15.34;73.14;99955.63;5010544;28;20087;-77
2021/11/05 10:38:54;;;;;;;18.55;15.45;;;;;;;15.27;73.29;99961.75;5011545;28;20034;-76
2021/11/05 10:41:21;;;;;;;;;;;;;;;15.17;73.79;99957.81;5011430;28;20505;-76
2021/11/05 10:43:55;;;;;;;15.68;13.15;;;;;;;14.96;73.13;99904.72;5011476;28;19988;-77
2021/11/05 10:46:23;;;;;;;16.85;12.98;;;;;;;15.22;73.74;99953.53;5011446;28;20427;-76
2021/11/05 10:48:50;;;;;;;22.40;17.90;;;;;;;14.81;73.62;99876.41;5010936;28;20030;-76
2021/11/05 10:51:20;;;;;;;22.67;16.40;;;;;;;15.26;73.64;99945.97;5011389;28;20539;-76
2021/11/05 10:53:46;;;;;;;16.88;12.68;;;;;;;15.37;73.05;99957.91;5010907;28;20037;-76
2021/11/05 10:56:17;;;;;;;21.30;15.52;;;;;;;14.90;73.32;99883.25;5011032;28;20030;-76
2021/11/05 10:58:57;;;;;;;16.70;13.45;;;;;;;14.54;73.59;99803.72;5009275;28;20053;-77
2021/11/05 11:01:25;;;;;;;20.58;17.02;;;;;;;15.31;73.24;99919.59;5009058;28;20464;-76
2021/11/05 11:03:56;;;;;;;22.73;16.42;;;;;;;15.44;73.52;99924.16;5027257;28;20021;-77
2021/11/05 11:06:28;;;;;;;21.60;14.77;;;;;;;15.47;73.26;99921.09;5013685;28;20023;-76
2021/11/05 11:08:59;;;;;;;17.75;15.13;;;;;;;15.38;73.34;99912.47;4999709;28;20506;-76
2021/11/05 11:11:33;;;;;;;22.17;14.27;;;;;;;15.05;73.38;99868.97;5002816;28;20059;-77
2021/11/05 11:14:01;;;;;;;20.38;14.38;;;;;;;15.48;73.75;99920.88;5001766;28;20029;-77